Wednesday, October 18, 2017, 6:07 PM EDT
Back to Local

KSHD, Staunton / Shenandoah

Location: Weyers Cave, VA, United States Lat: 38.267
Local Time: 6:07 PM EDT (22:07 GMT) Lon: -78.9
Time Zone: US/Eastern Elev: 1200 ft

Show me the last for .
Show Decoded

2017-10-18 17:35 METAR KSHD 182135Z AUTO 17005KT 10SM CLR 19/04 A3032 RMK AO2 T01900038 =
2017-10-18 17:15 METAR KSHD 182115Z AUTO 21005KT 10SM CLR 19/04 A3032 RMK AO2 T01940037 =
2017-10-18 16:55 METAR KSHD 182055Z AUTO 14004KT 10SM CLR 20/04 A3032 RMK AO2 T01960038 =
2017-10-18 16:35 METAR KSHD 182035Z AUTO 18005KT 10SM CLR 20/03 A3032 RMK AO2 T01980031 =
2017-10-18 16:15 METAR KSHD 182015Z AUTO 16006KT 10SM CLR 20/03 A3033 RMK AO2 T01980026 =
2017-10-18 15:55 METAR KSHD 181955Z AUTO 19005KT 10SM CLR 20/02 A3033 RMK AO2 T02010018 =
2017-10-18 15:35 METAR KSHD 181935Z AUTO 24003KT 10SM CLR 20/01 A3034 RMK AO2 T01990014 =
2017-10-18 15:15 METAR KSHD 181915Z AUTO 20007KT 10SM CLR 20/02 A3034 RMK AO2 T01980018 =
2017-10-18 14:55 METAR KSHD 181855Z AUTO 22006KT 10SM CLR 20/02 A3035 RMK AO2 T01970022 =
2017-10-18 14:35 METAR KSHD 181835Z AUTO 23006KT 10SM CLR 19/03 A3035 RMK AO2 T01940025 =
2017-10-18 14:15 METAR KSHD 181815Z AUTO 18006KT 10SM CLR 20/03 A3035 RMK AO2 T01960029 =
2017-10-18 13:55 METAR KSHD 181755Z AUTO 18006KT 10SM CLR 19/03 A3037 RMK AO2 T01930034 10193
                 21013 =
2017-10-18 13:35 METAR KSHD 181735Z AUTO 28004KT 10SM CLR 18/04 A3037 RMK AO2 T01830041 =
2017-10-18 13:15 METAR KSHD 181715Z AUTO 13004KT 10SM CLR 17/04 A3039 RMK AO2 T01730039 =
2017-10-18 12:55 METAR KSHD 181655Z AUTO 19003KT 10SM CLR 18/04 A3040 RMK AO2 T01760039 =
2017-10-18 12:35 METAR KSHD 181635Z AUTO 20003KT 10SM CLR 17/05 A3041 RMK AO2 T01670047 =
2017-10-18 12:15 METAR KSHD 181615Z AUTO 00000KT 10SM CLR 16/04 A3042 RMK AO2 T01580042 =
2017-10-18 11:55 METAR KSHD 181555Z AUTO 00000KT 10SM CLR 15/05 A3043 RMK AO2 T01500047 =
2017-10-18 11:35 METAR KSHD 181535Z AUTO 00000KT 10SM CLR 13/04 A3043 RMK AO2 T01320042 =
2017-10-18 11:15 METAR KSHD 181515Z AUTO 00000KT 10SM CLR 12/05 A3043 RMK AO2 T01180045 =
2017-10-18 10:55 METAR KSHD 181455Z AUTO 00000KT 10SM CLR 10/05 A3043 RMK AO2 T01020045 =
2017-10-18 10:35 METAR KSHD 181435Z AUTO 00000KT 10SM CLR 09/04 A3043 RMK AO2 T00910043 =
2017-10-18 10:15 METAR KSHD 181415Z AUTO 00000KT 10SM CLR 08/04 A3044 RMK AO2 T00770038 =
2017-10-18 09:55 METAR KSHD 181355Z AUTO 00000KT 10SM CLR 06/03 A3043 RMK AO2 T00600031 =
2017-10-18 09:35 METAR KSHD 181335Z AUTO 00000KT 10SM CLR 05/03 A3043 RMK AO2 T00480032 =
2017-10-18 09:15 METAR KSHD 181315Z AUTO 00000KT 10SM CLR 04/02 A3043 RMK AO2 T00350023 =
2017-10-18 08:55 METAR KSHD 181255Z AUTO 00000KT 10SM CLR 02/02 A3043 RMK AO2 T00230015 =
2017-10-18 08:35 METAR KSHD 181235Z AUTO 00000KT 10SM CLR 01/00 A3041 RMK AO2 T00070000 =
2017-10-18 08:15 METAR KSHD 181215Z AUTO 00000KT 10SM CLR 00/M01 A3041 RMK AO2 T00001006 =
2017-10-18 07:55 METAR KSHD 181155Z AUTO 00000KT 10SM CLR M01/M02 A3040 RMK AO2 T10121020 10016
                 21015 =
2017-10-18 07:35 METAR KSHD 181135Z AUTO 00000KT 10SM CLR M01/M01 A3040 RMK AO2 T10061015 =
2017-10-18 07:15 METAR KSHD 181115Z AUTO 00000KT 10SM CLR M01/M01 A3039 RMK AO2 T10061012 =
2017-10-18 06:55 METAR KSHD 181055Z AUTO 00000KT 10SM CLR M01/M02 A3039 RMK AO2 T10101017 =
2017-10-18 06:35 METAR KSHD 181035Z AUTO 00000KT 10SM CLR 00/M01 A3038 RMK AO2 T10051012 =
2017-10-18 06:15 METAR KSHD 181015Z AUTO 00000KT 10SM CLR 00/M01 A3038 RMK AO2 T00001006 =
2017-10-18 05:55 METAR KSHD 180955Z AUTO 00000KT 10SM CLR 00/M01 A3037 RMK AO2 T10021009 =
2017-10-18 05:35 METAR KSHD 180935Z AUTO 00000KT 10SM CLR 00/M01 A3037 RMK AO2 T10011008 =
2017-10-18 05:15 METAR KSHD 180915Z AUTO 00000KT 10SM CLR 00/00 A3037 RMK AO2 T00001002 =
2017-10-18 04:55 METAR KSHD 180855Z AUTO 00000KT 10SM CLR 00/M01 A3037 RMK AO2 T10051013 =
2017-10-18 04:35 METAR KSHD 180835Z AUTO 00000KT 10SM CLR 00/00 A3036 RMK AO2 T00001005 =
2017-10-18 04:15 METAR KSHD 180815Z AUTO 00000KT 10SM CLR 01/00 A3035 RMK AO2 T00050000 =
2017-10-18 03:55 METAR KSHD 180755Z AUTO 00000KT 10SM CLR 00/00 A3036 RMK AO2 T00011002 =
2017-10-18 03:35 METAR KSHD 180735Z AUTO 00000KT 10SM CLR 00/00 A3035 RMK AO2 T00011004 =
2017-10-18 03:15 METAR KSHD 180715Z AUTO 00000KT 10SM CLR 00/00 A3035 RMK AO2 T00031002 =
2017-10-18 02:55 METAR KSHD 180655Z AUTO 00000KT 10SM CLR 01/00 A3035 RMK AO2 T00070000 =
2017-10-18 02:35 METAR KSHD 180635Z AUTO 00000KT 10SM CLR 01/00 A3035 RMK AO2 T00071004 =
2017-10-18 02:15 METAR KSHD 180615Z AUTO 00000KT 10SM CLR 01/00 A3035 RMK AO2 T00130001 =
2017-10-18 01:55 METAR KSHD 180555Z AUTO 00000KT 10SM CLR 01/00 A3035 RMK AO2 T00090000 10097
                 20009 401611005 =
2017-10-18 01:35 METAR KSHD 180535Z AUTO 00000KT 10SM CLR 02/00 A3035 RMK AO2 T00150003 =
2017-10-18 01:15 METAR KSHD 180515Z AUTO 00000KT 10SM CLR 02/00 A3035 RMK AO2 T00150000 =
2017-10-18 00:55 METAR KSHD 180455Z AUTO 00000KT 10SM CLR 03/01 A3035 RMK AO2 T00300010 =
2017-10-18 00:35 METAR KSHD 180435Z AUTO 00000KT 10SM CLR 03/01 A3035 RMK AO2 T00270007 =
2017-10-18 00:15 METAR KSHD 180415Z AUTO 00000KT 10SM CLR 03/01 A3035 RMK AO2 T00340012 =
2017-10-17 23:55 METAR KSHD 180355Z AUTO 00000KT 10SM CLR 04/01 A3035 RMK AO2 T00400011 =
2017-10-17 23:35 METAR KSHD 180335Z AUTO 00000KT 10SM CLR 03/01 A3035 RMK AO2 T00320012 =
2017-10-17 23:15 METAR KSHD 180315Z AUTO 00000KT 10SM CLR 04/01 A3035 RMK AO2 T00420014 =
2017-10-17 22:55 METAR KSHD 180255Z AUTO 00000KT 10SM CLR 04/01 A3035 RMK AO2 T00380011 =
2017-10-17 22:35 METAR KSHD 180235Z AUTO 00000KT 10SM CLR 06/02 A3035 RMK AO2 T00580020 =
2017-10-17 22:15 METAR KSHD 180215Z AUTO 00000KT 10SM CLR 05/02 A3035 RMK AO2 T00530018 =
2017-10-17 21:55 METAR KSHD 180155Z AUTO 00000KT 10SM CLR 06/02 A3034 RMK AO2 T00630019 =
2017-10-17 21:35 METAR KSHD 180135Z AUTO 00000KT 10SM CLR 06/02 A3034 RMK AO2 T00600019 =
2017-10-17 21:15 METAR KSHD 180115Z AUTO 24003KT 10SM CLR 05/02 A3033 RMK AO2 T00470018 =
2017-10-17 20:55 METAR KSHD 180055Z AUTO 00000KT 10SM CLR 07/02 A3033 RMK AO2 T00720021 =
2017-10-17 20:35 METAR KSHD 180035Z AUTO 00000KT 10SM CLR 07/02 A3033 RMK AO2 T00730019 =
2017-10-17 20:15 METAR KSHD 180015Z AUTO 00000KT 10SM CLR 08/02 A3032 RMK AO2 T00810020 =
2017-10-17 19:55 METAR KSHD 172355Z AUTO 00000KT 10SM CLR 10/02 A3031 RMK AO2 T00990020 10161
                 20085 =
2017-10-17 19:35 METAR KSHD 172335Z AUTO 00000KT 10SM CLR 09/02 A3031 RMK AO2 T00860021 =
2017-10-17 19:15 METAR KSHD 172315Z AUTO 00000KT 10SM CLR 12/01 A3030 RMK AO2 T01200011 =
2017-10-17 18:55 METAR KSHD 172255Z AUTO 00000KT 10SM CLR 13/01 A3030 RMK AO2 T01250011 =
2017-10-17 18:35 METAR KSHD 172235Z AUTO 00000KT 10SM CLR 14/01 A3030 RMK AO2 T01360010 =
2017-10-17 18:15 METAR KSHD 172215Z AUTO 00000KT 10SM CLR 15/00 A3029 RMK AO2 T01510003 =

Support USWX by starting your Amazon purchase here.